Sky Portal Airport

About
Name: Sky Portal Airport
Identifier:  MTP/KMTP
Local Time:  25. Aug 04:51 EDT
Location
Montauk Point
  United States

Flights per Day
0 flights
Distance: 181km (112mi)
Punctuality
0% (0 flights per day delayed)
Delay Average: 222 minutes
Current Weather
  5kt (9km/h / 5mph) from 50°
  0km (0 mi.)
 METAR KMTP 250754Z AUTO 05005KT 18/15 A3026 RMK AO1 SLP245 T01780150

Current Flights

Departures
Number Departure To Airline
Arrivals
Number Arrival From Airline

Current Delays

Departures
N/A
Arrivals
N/A

Destinations

Top Destinations
Airport Flights
per week
Seats
per week
  Islip (ISP) 2 - 0 0
  Trenton (TTN) 2 - 0 0
  Teterboro (TEB) 2 - 0 0
  White Plains (HPN) 2 - 0 0
  Stratford (BDR) 1 - 0 0
  Nantucket (ACK) 1 - 0 0
  Morristown (MMU) 0 - 0 0
  Farmingdale (FRG) 0 - 0 0
  Linden (LDJ) 0 - 0 0
  Newport (NPT) 0 - 0 0

Airlines & Planes

Top Airlines
Airline Flights
per Day
Seats
per Day
  Novair 0 -
  Centennial Airlines 0 -
  Flybe Nordic 0 -
Tradewind Aviation 0 0
Jet Charter Inc ( Franklin Lakes Nj ) 0 -
Nordwind Airlines 0 -
  National Airlines 0 -
  Nolinor Aviation 0 -
Top Plane Types
Model Flights Seats
Pilatus PC-12 1.2/day - -0.3333333333333333
Beech E90 King Air 0.4/day - 0
Beech 58 0.2/day - 0
Cessna C172 0.2/day - 0
Cirrus SR22 0.1/day - 0
Piper PA28-181 0.1/day - 0
Sikorsky S-76C 0.1/day - 0
Cessna C182 0.1/day - 0